This is the latest recevied weather packets stored in our database for station/object SV9TNF-2. If no packets are shown the sender has not sent any weather packets the latest 10 day(s).
| Time | Temp. | Humidity | Pressure | Rain* | Wind** | Luminosity | Snow |
|---|---|---|---|---|---|---|---|
| 1777604710 | 16.67° C | 50% | 1019 hPa | 0 mm | 3.13 m/s, 183° | - | - |
| 1777604410 | 16.67° C | 51% | 1019 hPa | 0 mm | 4.02 m/s, 226° | - | - |
| 1777604110 | 16.67° C | 50% | 1019 hPa | 0 mm | 7.6 m/s, 208° | - | - |
| 1777603810 | 16.67° C | 50% | 1019 hPa | 0 mm | 8.94 m/s, 179° | - | - |
| 1777603510 | 16.67° C | 51% | 1019 hPa | 0 mm | 7.15 m/s, 179° | - | - |
| 1777603210 | 16.67° C | 50% | 1019 hPa | 0 mm | 6.26 m/s, 188° | - | - |
| 1777602609 | 16.67° C | 49% | 1019 hPa | 0 mm | 6.26 m/s, 190° | - | - |
| 1777602309 | 16.67° C | 49% | 1019 hPa | 0 mm | 4.47 m/s, 174° | - | - |
| 1777602009 | 16.67° C | 48% | 1019 hPa | 0 mm | 8.05 m/s, 181° | - | - |
| 1777601709 | 16.67° C | 49% | 1019 hPa | 0 mm | 6.26 m/s, 178° | - | - |
| 1777601409 | 16.67° C | 49% | 1019 hPa | 0 mm | 7.15 m/s, 218° | - | - |
| 1777601109 | 16.67° C | 51% | 1019 hPa | 0 mm | 7.6 m/s, 237° | - | - |
| 1777600809 | 16.67° C | 51% | 1019 hPa | 0 mm | 4.92 m/s, 213° | - | - |
| 1777600509 | 16.67° C | 51% | 1019 hPa | 0 mm | 6.71 m/s, 215° | - | - |
| 1777600208 | 16.67° C | 51% | 1019 hPa | 0 mm | 7.15 m/s, 168° | - | - |
| 1777599909 | 16.11° C | 52% | 1019 hPa | 0 mm | 6.26 m/s, 230° | - | - |
| 1777599608 | 16.67° C | 50% | 1019 hPa | 0 mm | 7.15 m/s, 183° | - | - |
| 1777599308 | 17.22° C | 49% | 1019.3 hPa | 0 mm | 7.6 m/s, 161° | - | - |
| 1777599008 | 18.89° C | 41% | 1019.3 hPa | 0 mm | 4.02 m/s, 239° | - | - |
| 1777598708 | 18.89° C | 42% | 1019.3 hPa | 0 mm | 4.47 m/s, 213° | - | - |
| 1777598408 | 19.44° C | 41% | 1019.3 hPa | 0 mm | 5.36 m/s, 261° | - | - |
| 1777598108 | 18.89° C | 42% | 1019.3 hPa | 0 mm | 5.81 m/s, 239° | - | - |
| 1777597808 | 18.89° C | 40% | 1019.3 hPa | 0 mm | 7.15 m/s, 232° | - | - |
| 1777597508 | 17.22° C | 49% | 1019.3 hPa | 0 mm | 4.02 m/s, 211° | - | - |
| 1777597207 | 17.22° C | 50% | 1019.3 hPa | 0 mm | 4.47 m/s, 218° | - | - |
* Rain latest hour (hover to see other rain measurements)
** Current wind speed in m/s (hover to see current wind gust speed)